Time;durP1;ratioP1;P1;durP2;ratioP2;P2;SDS_P1;SDS_P2;PMS_P1;PMS_P2;Temp;Humidity;BMP_temperature;BMP_pressure;BME280_temperature;BME280_humidity;BME280_pressure;Samples;Min_cycle;Max_cycle;Signal;HPM_P1;HPM_P2
2022/11/08 00:01:33;;;;;;;;;7.75;7.75;;;;;14.75;70.97;100543.50;4868447;29;45286;-80
2022/11/08 00:04:07;;;;;;;;;8.00;7.00;;;;;14.71;70.89;100530.31;4863521;29;45571;-80
2022/11/08 00:14:45;;;;;;;;;6.00;6.00;;;;;14.73;70.61;100520.34;4859885;29;45236;-80
2022/11/08 00:17:13;;;;;;;;;8.25;5.75;;;;;14.70;70.95;100513.31;4865914;29;45307;-80
2022/11/08 00:19:38;;;;;;;;;7.50;6.25;;;;;14.71;70.60;100506.97;4868109;29;45329;-80
2022/11/08 00:22:04;;;;;;;;;8.00;7.50;;;;;14.68;70.62;100496.38;4869797;29;45479;-80
2022/11/08 00:24:29;;;;;;;;;7.50;7.50;;;;;14.64;70.55;100492.16;4869596;29;48340;-80
2022/11/08 00:26:55;;;;;;;;;8.00;7.00;;;;;14.63;70.53;100485.03;4868387;29;45507;-80
2022/11/08 00:29:20;;;;;;;;;6.00;6.00;;;;;14.61;70.62;100478.88;4852020;29;45349;-80
2022/11/08 00:31:45;;;;;;;;;7.25;7.00;;;;;14.57;70.71;100472.78;4868528;29;47677;-80
2022/11/08 00:34:11;;;;;;;;;6.00;6.00;;;;;14.59;70.38;100473.59;4865703;29;50871;-80
2022/11/08 00:36:36;;;;;;;;;7.25;6.00;;;;;14.62;70.61;100480.63;4867710;29;45493;-80
2022/11/08 00:39:01;;;;;;;;;9.25;8.00;;;;;14.57;70.49;100463.84;4867897;29;45237;-80
2022/11/08 00:41:27;;;;;;;;;5.00;5.00;;;;;14.54;70.47;100455.97;4868517;29;45334;-80
2022/11/08 00:43:52;;;;;;;;;5.75;5.50;;;;;14.57;70.44;100453.09;4866135;29;46507;-80
2022/11/08 00:46:17;;;;;;;;;7.50;7.50;;;;;14.56;70.56;100446.00;4857272;29;46154;-80
2022/11/08 00:48:43;;;;;;;;;9.00;7.00;;;;;14.55;70.42;100433.50;4850759;29;45366;-80
2022/11/08 00:51:10;;;;;;;;;8.25;6.00;;;;;14.52;70.54;100433.69;4867656;29;47248;-80
2022/11/08 00:53:37;;;;;;;;;7.00;6.00;;;;;14.46;70.31;100424.13;4851010;29;47301;-80
2022/11/08 00:56:05;;;;;;;;;9.00;6.00;;;;;14.46;69.91;100422.28;4850600;29;45551;-80
2022/11/08 00:58:31;;;;;;;;;6.25;4.75;;;;;14.39;70.31;100403.94;4868076;29;45283;-80
2022/11/08 01:00:56;;;;;;;;;5.25;5.00;;;;;14.31;69.97;100396.28;4866620;29;45480;-80
2022/11/08 01:03:23;;;;;;;;;6.00;6.00;;;;;14.41;70.42;100418.13;4852896;29;48382;-80
2022/11/08 01:05:51;;;;;;;;;8.50;7.50;;;;;14.44;70.23;100421.53;4865192;29;46239;-80
2022/11/08 01:08:23;;;;;;;;;5.75;5.00;;;;;14.39;70.38;100415.53;4865302;29;45361;-80
2022/11/08 01:10:50;;;;;;;;;5.25;5.25;;;;;14.42;70.21;100423.44;4870323;29;45341;-80
2022/11/08 01:13:16;;;;;;;;;7.25;6.00;;;;;14.40;70.10;100411.00;4867548;29;46124;-80
2022/11/08 01:15:44;;;;;;;;;7.00;6.25;;;;;14.46;69.86;100416.06;4866533;29;45342;-80
2022/11/08 01:18:11;;;;;;;;;6.75;6.00;;;;;14.43;69.82;100414.44;4869644;29;45336;-80
2022/11/08 01:20:38;;;;;;;;;9.00;5.00;;;;;14.35;69.93;100422.03;4862283;29;45666;-80
2022/11/08 01:23:03;;;;;;;;;4.00;4.00;;;;;14.31;69.70;100408.84;4847814;29;46713;-80
2022/11/08 01:25:28;;;;;;;;;5.50;5.50;;;;;14.33;69.89;100405.09;4849088;29;45406;-80
2022/11/08 01:27:54;;;;;;;;;5.75;5.00;;;;;14.35;69.59;100400.53;4848568;29;45316;-80
2022/11/08 01:30:19;;;;;;;;;4.50;4.25;;;;;14.30;69.54;100407.97;4848876;29;45483;-80
2022/11/08 01:32:44;;;;;;;;;5.25;4.25;;;;;14.30;69.66;100412.47;4848525;29;45575;-80
2022/11/08 01:35:10;;;;;;;;;3.75;3.75;;;;;14.25;69.36;100413.59;4832442;29;45399;-80
2022/11/08 01:37:35;;;;;;;;;5.00;5.00;;;;;14.07;69.47;100391.25;4847364;29;45534;-80
2022/11/08 01:40:01;;;;;;;;;4.00;4.00;;;;;14.16;69.64;100397.94;4848141;29;45479;-80
2022/11/08 01:42:31;;;;;;;;;5.00;5.00;;;;;14.16;69.66;100403.31;4848419;29;45352;-80
2022/11/08 01:45:02;;;;;;;;;6.00;4.00;;;;;14.14;69.69;100407.91;4831845;29;46200;-80
2022/11/08 01:47:28;;;;;;;;;4.00;3.00;;;;;14.14;69.74;100402.53;4847775;29;45334;-80
2022/11/08 01:49:58;;;;;;;;;5.50;4.50;;;;;14.15;69.55;100401.59;4851601;29;45241;-80
2022/11/08 01:52:30;;;;;;;;;4.00;4.00;;;;;14.12;68.96;100398.22;4850776;29;48281;-80
2022/11/08 01:55:01;;;;;;;;;5.50;5.50;;;;;14.12;69.24;100396.41;4849648;29;45460;-80
2022/11/08 01:57:34;;;;;;;;;4.50;4.50;;;;;14.11;69.18;100397.34;4848940;29;45458;-80
2022/11/08 02:00:04;;;;;;;;;4.50;4.00;;;;;14.05;69.16;100389.63;4848795;29;45377;-80
2022/11/08 02:02:32;;;;;;;;;4.00;4.00;;;;;13.96;69.32;100377.53;4835668;29;48724;-80
2022/11/08 02:04:58;;;;;;;;;4.00;3.25;;;;;14.00;69.47;100381.81;4855034;29;45508;-80
2022/11/08 02:07:24;;;;;;;;;6.25;5.25;;;;;14.02;69.57;100381.72;4831739;29;45383;-80
2022/11/08 02:09:49;;;;;;;;;5.00;4.00;;;;;13.96;69.36;100372.16;4831677;29;45430;-80
2022/11/08 02:12:19;;;;;;;;;4.25;4.00;;;;;13.92;69.14;100357.19;4829454;29;47979;-80
2022/11/08 02:14:44;;;;;;;;;6.75;5.00;;;;;14.01;69.39;100374.63;4850977;29;45537;-80
2022/11/08 02:17:10;;;;;;;;;5.75;5.00;;;;;13.96;69.05;100357.88;4833459;29;45278;-80
2022/11/08 02:19:38;;;;;;;;;4.50;4.50;;;;;14.01;69.33;100358.50;4848050;29;45450;-80
2022/11/08 02:22:27;;;;;;;;;6.50;5.50;;;;;13.96;69.46;100348.00;4847722;29;45351;-80
2022/11/08 02:24:54;;;;;;;;;4.75;3.75;;;;;13.99;69.19;100347.84;4831679;29;45443;-80
2022/11/08 02:27:19;;;;;;;;;5.00;5.00;;;;;13.93;69.15;100326.69;4845040;29;45584;-80
2022/11/08 02:29:45;;;;;;;;;4.00;3.50;;;;;13.89;68.85;100317.97;4832180;29;45279;-80
2022/11/08 02:32:11;;;;;;;;;4.50;4.00;;;;;13.86;68.71;100307.38;4847167;29;45470;-80
2022/11/08 02:34:43;;;;;;;;;3.50;3.00;;;;;13.92;68.98;100308.03;4847645;29;45277;-80
2022/11/08 02:37:09;;;;;;;;;5.50;4.50;;;;;13.88;68.74;100302.81;4849829;29;45277;-80
2022/11/08 02:39:35;;;;;;;;;4.50;3.25;;;;;13.93;68.37;100304.38;4861357;29;45341;-80
2022/11/08 02:42:01;;;;;;;;;4.50;3.75;;;;;13.93;68.62;100299.88;4850153;29;45478;-80
2022/11/08 02:44:27;;;;;;;;;6.25;4.25;;;;;13.97;68.41;100301.47;4846174;29;45336;-80
2022/11/08 02:46:53;;;;;;;;;3.25;3.00;;;;;13.92;68.66;100302.66;4832063;29;45589;-81
2022/11/08 02:49:18;;;;;;;;;3.75;3.75;;;;;13.96;68.31;100302.41;4852986;29;45499;-80
2022/11/08 02:51:43;;;;;;;;;4.00;4.00;;;;;13.94;68.12;100309.66;4846995;29;45360;-81
2022/11/08 02:54:09;;;;;;;;;3.25;3.25;;;;;13.88;67.85;100293.88;4842420;29;45383;-80
2022/11/08 02:56:34;;;;;;;;;4.00;2.75;;;;;13.86;67.70;100288.59;4847751;29;45363;-80
2022/11/08 02:58:59;;;;;;;;;4.00;3.75;;;;;13.82;67.86;100278.13;4851147;29;45286;-81
2022/11/08 03:01:25;;;;;;;;;2.50;2.50;;;;;13.80;67.61;100280.91;4828170;29;48077;-80
2022/11/08 03:03:50;;;;;;;;;2.50;2.50;;;;;13.80;67.89;100274.66;4840976;29;45281;-80
2022/11/08 03:06:15;;;;;;;;;4.50;3.25;;;;;13.83;67.36;100274.50;4847061;29;45326;-81
2022/11/08 03:08:41;;;;;;;;;2.25;2.25;;;;;13.77;67.43;100282.88;4847893;29;45365;-80
2022/11/08 03:11:06;;;;;;;;;3.50;3.50;;;;;13.81;67.67;100287.13;4834118;29;46229;-80
2022/11/08 03:13:31;;;;;;;;;4.50;3.75;;;;;13.86;67.26;100298.47;4853529;29;45367;-80
2022/11/08 03:16:00;;;;;;;;;5.25;3.00;;;;;13.81;67.36;100279.06;4830472;29;45359;-81
2022/11/08 03:18:25;;;;;;;;;3.00;3.00;;;;;13.84;67.55;100285.13;4846642;29;45368;-81
2022/11/08 03:20:50;;;;;;;;;3.50;3.25;;;;;13.84;67.70;100282.47;4847745;29;45723;-80
2022/11/08 03:23:16;;;;;;;;;3.50;3.50;;;;;13.87;67.22;100284.13;4833582;29;45308;-81
2022/11/08 03:25:41;;;;;;;;;3.25;3.00;;;;;13.83;66.99;100287.91;4833586;29;45254;-80
2022/11/08 03:28:07;;;;;;;;;4.00;2.75;;;;;13.88;67.46;100316.25;4847963;29;45478;-81
2022/11/08 03:30:34;;;;;;;;;3.00;3.00;;;;;13.82;66.92;100299.59;4845351;29;47181;-80
2022/11/08 03:33:00;;;;;;;;;2.00;2.00;;;;;13.84;67.04;100293.19;4846460;29;45506;-81
2022/11/08 03:35:26;;;;;;;;;3.00;3.00;;;;;13.78;67.16;100292.66;4846976;29;45389;-81
2022/11/08 03:37:52;;;;;;;;;3.50;3.50;;;;;13.87;66.95;100294.84;4830775;29;45323;-80
2022/11/08 03:40:18;;;;;;;;;2.25;2.25;;;;;13.77;66.91;100277.53;4846188;29;48197;-81
2022/11/08 03:42:45;;;;;;;;;3.00;3.00;;;;;13.83;66.69;100288.78;4846031;29;45213;-81
2022/11/08 03:45:11;;;;;;;;;3.50;3.50;;;;;13.88;66.52;100280.47;4844547;29;45237;-80
2022/11/08 03:47:38;;;;;;;;;4.00;2.50;;;;;13.87;66.52;100284.97;4846540;29;45470;-80
2022/11/08 03:50:07;;;;;;;;;3.00;3.00;;;;;13.86;66.43;100288.59;4845832;29;45366;-80
2022/11/08 03:52:44;;;;;;;;;3.25;3.00;;;;;13.84;66.60;100290.50;4845218;29;45232;-81
2022/11/08 03:55:10;;;;;;;;;3.50;3.50;;;;;13.80;66.47;100271.97;4847181;29;45281;-81
2022/11/08 03:57:39;;;;;;;;;3.50;3.00;;;;;13.68;66.30;100257.41;4846718;29;45281;-80
2022/11/08 04:00:07;;;;;;;;;4.00;3.00;;;;;13.83;66.24;100287.91;4830543;29;47594;-81
2022/11/08 04:02:33;;;;;;;;;4.75;4.50;;;;;13.76;66.24;100278.47;4833164;29;45263;-80
2022/11/08 04:04:58;;;;;;;;;2.25;2.00;;;;;13.71;66.31;100267.97;4830817;29;45367;-81
2022/11/08 04:07:23;;;;;;;;;3.00;3.00;;;;;13.78;66.37;100273.88;4830326;29;45897;-76
2022/11/08 04:09:49;;;;;;;;;4.00;4.00;;;;;13.77;66.11;100280.19;4845477;29;45237;-76
2022/11/08 04:15:16;;;;;;;;;4.00;4.00;;;;;13.76;65.75;100281.13;4845574;29;45313;-76
2022/11/08 04:23:13;;;;;;;;;4.00;4.00;;;;;13.69;65.88;100278.78;4833193;29;45336;-76
2022/11/08 04:25:39;;;;;;;;;4.00;4.00;;;;;13.69;65.85;100272.53;4853211;29;45457;-76
2022/11/08 04:28:05;;;;;;;;;3.25;3.25;;;;;13.64;65.84;100275.47;4848374;29;45503;-76
2022/11/08 04:30:31;;;;;;;;;4.00;2.50;;;;;13.72;65.83;100291.16;4850593;29;45314;-76
2022/11/08 04:33:00;;;;;;;;;2.75;2.75;;;;;13.71;65.91;100293.00;4840897;29;46161;-76
2022/11/08 04:35:25;;;;;;;;;6.00;3.00;;;;;13.70;65.44;100283.19;4848515;29;45343;-76
2022/11/08 04:37:51;;;;;;;;;3.00;2.50;;;;;13.65;65.43;100282.56;4849045;29;45383;-77
2022/11/08 04:40:16;;;;;;;;;3.25;3.25;;;;;13.60;65.36;100279.28;4849299;29;45763;-77
2022/11/08 04:42:44;;;;;;;;;2.25;1.50;;;;;13.60;65.49;100275.69;4848178;29;45410;-76
2022/11/08 04:45:10;;;;;;;;;3.50;3.50;;;;;13.51;65.56;100258.28;4848645;29;45230;-76
2022/11/08 04:47:35;;;;;;;;;3.25;3.25;;;;;13.64;65.93;100279.97;4852465;29;45409;-77
2022/11/08 04:50:01;;;;;;;;;6.75;4.75;;;;;13.65;65.74;100290.63;4848333;29;45624;-76
2022/11/08 04:52:26;;;;;;;;;3.25;3.00;;;;;13.62;65.30;100290.78;4849160;29;45596;-76
2022/11/08 04:54:51;;;;;;;;;4.00;4.00;;;;;13.56;65.21;100282.19;4855331;29;45432;-76
2022/11/08 04:57:17;;;;;;;;;3.25;3.00;;;;;13.61;65.42;100282.81;4848504;29;49699;-76
2022/11/08 04:59:42;;;;;;;;;3.00;3.00;;;;;13.56;65.40;100276.81;4848797;29;45418;-76
2022/11/08 05:02:07;;;;;;;;;3.00;3.00;;;;;13.58;65.71;100283.84;4831913;29;45782;-77
2022/11/08 05:04:33;;;;;;;;;2.00;2.00;;;;;13.60;65.47;100276.59;4848293;29;45324;-76
2022/11/08 05:06:58;;;;;;;;;3.75;3.00;;;;;13.59;65.17;100282.03;4848330;29;45543;-76
2022/11/08 05:09:23;;;;;;;;;3.75;3.00;;;;;13.53;65.20;100264.44;4848040;29;46455;-77
2022/11/08 05:11:49;;;;;;;;;2.75;2.75;;;;;13.53;65.10;100259.94;4847360;29;45294;-76
2022/11/08 05:14:14;;;;;;;;;3.25;3.25;;;;;13.52;65.32;100270.75;4848629;29;45393;-77
2022/11/08 05:16:39;;;;;;;;;2.00;2.00;;;;;13.46;65.20;100276.44;4824687;29;45485;-77
2022/11/08 05:19:05;;;;;;;;;3.50;3.00;;;;;13.48;65.49;100278.09;4847699;29;46242;-76
2022/11/08 05:24:15;;;;;;;;;3.25;2.50;;;;;13.48;65.39;100279.88;4837600;29;45423;-77
2022/11/08 05:26:43;;;;;;;;;4.25;4.25;;;;;13.45;65.13;100280.94;4848305;29;45532;-76
2022/11/08 05:29:10;;;;;;;;;5.50;5.50;;;;;13.45;65.21;100283.63;4848421;29;46392;-76
2022/11/08 05:31:35;;;;;;;;;3.00;3.00;;;;;13.35;65.34;100268.97;4846856;29;45291;-77
2022/11/08 05:34:00;;;;;;;;;3.25;3.25;;;;;13.45;64.99;100288.13;4831750;29;45393;-76
2022/11/08 05:36:27;;;;;;;;;2.50;2.50;;;;;13.41;65.25;100275.81;4849192;29;45446;-76
2022/11/08 05:38:52;;;;;;;;;2.00;2.00;;;;;13.40;65.11;100266.91;4831166;29;47374;-76
2022/11/08 05:41:21;;;;;;;;;2.75;2.75;;;;;13.46;65.14;100284.47;4846802;29;45318;-76
2022/11/08 05:43:51;;;;;;;;;5.50;4.75;;;;;13.45;65.10;100274.72;4848622;29;45368;-76
2022/11/08 05:46:18;;;;;;;;;5.25;4.25;;;;;13.37;64.91;100269.75;4830394;29;45481;-76
2022/11/08 05:48:45;;;;;;;;;3.00;3.00;;;;;13.44;64.81;100281.88;4847439;29;45457;-76
2022/11/08 05:51:12;;;;;;;;;3.00;3.00;;;;;13.32;65.09;100256.56;4846744;29;45652;-77
2022/11/08 05:53:38;;;;;;;;;3.00;3.00;;;;;13.42;65.22;100272.19;4847132;29;45334;-76
2022/11/08 05:56:04;;;;;;;;;2.25;2.00;;;;;13.42;65.00;100266.81;4830478;29;45396;-76
2022/11/08 05:58:32;;;;;;;;;4.75;4.25;;;;;13.41;65.03;100278.47;4847958;29;45409;-76
2022/11/08 06:01:06;;;;;;;;;2.00;2.00;;;;;13.39;64.77;100281.25;4849657;29;45430;-76
2022/11/08 06:03:32;;;;;;;;;3.00;3.00;;;;;13.37;64.77;100268.88;4846121;29;45506;-76
2022/11/08 06:06:03;;;;;;;;;3.25;3.25;;;;;13.20;64.76;100249.13;4847832;29;45662;-76
2022/11/08 06:08:28;;;;;;;;;4.00;2.75;;;;;13.26;64.99;100264.88;4845167;29;47241;-76
2022/11/08 06:10:54;;;;;;;;;4.00;4.00;;;;;13.27;64.68;100269.31;4846476;29;45502;-76
2022/11/08 06:13:19;;;;;;;;;3.75;3.50;;;;;13.25;64.72;100265.84;4846136;29;45318;-76
2022/11/08 06:15:44;;;;;;;;;4.50;4.50;;;;;13.24;65.04;100271.28;4845987;29;45314;-77
2022/11/08 06:18:09;;;;;;;;;5.00;3.75;;;;;13.24;65.02;100273.97;4847474;29;45373;-77
2022/11/08 06:20:35;;;;;;;;;3.00;3.00;;;;;13.24;64.95;100277.50;4856439;29;45354;-76
2022/11/08 06:23:00;;;;;;;;;4.00;4.00;;;;;13.24;64.72;100280.19;4848974;29;45587;-76
2022/11/08 06:25:26;;;;;;;;;3.25;2.50;;;;;13.23;64.85;100278.47;4866288;29;45536;-77
2022/11/08 06:27:51;;;;;;;;;2.75;2.50;;;;;13.16;64.81;100269.88;4865688;29;46236;-76
2022/11/08 06:30:16;;;;;;;;;1.50;1.50;;;;;13.20;65.11;100267.88;4863392;29;45613;-76
2022/11/08 06:32:42;;;;;;;;;3.75;3.50;;;;;13.13;64.93;100248.56;4864018;29;45354;-76
2022/11/08 06:35:07;;;;;;;;;4.00;3.25;;;;;13.18;65.07;100261.75;4847512;29;45648;-77
2022/11/08 06:37:33;;;;;;;;;4.00;4.00;;;;;13.20;65.09;100267.88;4865912;29;46258;-77
2022/11/08 06:39:58;;;;;;;;;4.25;4.25;;;;;13.07;65.06;100250.69;4853057;29;45384;-77
2022/11/08 06:42:24;;;;;;;;;3.00;3.00;;;;;13.13;64.82;100274.47;4863792;29;45381;-78
2022/11/08 06:44:50;;;;;;;;;3.75;3.50;;;;;13.20;65.05;100297.38;4843650;29;45477;-76
2022/11/08 06:47:15;;;;;;;;;3.00;3.00;;;;;13.19;65.02;100297.44;4862463;29;45548;-76
2022/11/08 06:49:40;;;;;;;;;3.00;2.25;;;;;13.23;65.06;100309.72;4850716;29;45310;-76
2022/11/08 06:52:06;;;;;;;;;2.25;2.25;;;;;13.20;65.15;100315.25;4868047;29;45352;-76
2022/11/08 06:54:31;;;;;;;;;5.25;4.00;;;;;13.22;64.98;100305.34;4875870;29;45506;-77
2022/11/08 06:56:59;;;;;;;;;4.00;3.00;;;;;13.25;65.16;100302.50;4866451;29;45579;-76
2022/11/08 06:59:28;;;;;;;;;4.25;3.00;;;;;13.24;65.03;100304.28;4850096;29;45295;-77
2022/11/08 07:01:54;;;;;;;;;2.75;1.25;;;;;13.14;64.94;100284.28;4865365;29;45438;-76
2022/11/08 07:04:20;;;;;;;;;3.00;3.00;;;;;13.16;65.11;100299.34;4851760;29;45597;-77
2022/11/08 07:06:45;;;;;;;;;3.50;3.00;;;;;13.04;64.96;100277.66;4848070;29;46955;-76
2022/11/08 07:09:11;;;;;;;;;4.00;3.00;;;;;13.10;65.01;100288.91;4868031;29;46663;-77
2022/11/08 07:11:36;;;;;;;;;3.75;3.25;;;;;13.13;65.11;100298.59;4869107;29;45395;-77
2022/11/08 07:14:01;;;;;;;;;5.00;3.25;;;;;13.18;65.01;100310.00;4849067;29;45463;-77
2022/11/08 07:16:27;;;;;;;;;3.00;3.00;;;;;13.14;64.94;100298.53;4846811;29;47055;-77
2022/11/08 07:18:54;;;;;;;;;3.75;3.75;;;;;13.19;64.97;100305.47;4865368;29;46677;-77
2022/11/08 07:21:21;;;;;;;;;5.25;3.75;;;;;13.18;65.10;100310.00;4862974;29;45398;-77
2022/11/08 07:23:47;;;;;;;;;5.50;4.25;;;;;13.20;65.31;100325.97;4863916;29;45780;-77
2022/11/08 07:26:13;;;;;;;;;3.00;3.00;;;;;13.18;65.25;100320.72;4863467;29;45486;-77
2022/11/08 07:28:38;;;;;;;;;3.00;3.00;;;;;13.18;65.09;100314.47;4861416;29;45352;-76
2022/11/08 07:31:04;;;;;;;;;4.00;3.75;;;;;13.22;65.00;100305.34;4866840;29;45357;-76
2022/11/08 07:33:30;;;;;;;;;4.75;4.50;;;;;13.14;65.13;100297.66;4865390;29;45579;-77
2022/11/08 07:35:55;;;;;;;;;5.25;4.00;;;;;13.18;64.98;100299.28;4863489;29;46530;-77
2022/11/08 07:38:21;;;;;;;;;3.50;3.50;;;;;13.22;65.11;100321.41;4843009;29;46319;-76
2022/11/08 07:40:47;;;;;;;;;4.00;4.00;;;;;13.14;65.22;100306.56;4861603;29;45521;-76
2022/11/08 07:43:12;;;;;;;;;4.75;4.00;;;;;13.18;65.16;100318.03;4865486;29;45192;-76
2022/11/08 07:45:38;;;;;;;;;5.25;3.50;;;;;13.23;65.38;100336.53;4864207;29;46245;-77
2022/11/08 07:48:07;;;;;;;;;5.00;3.75;;;;;13.24;65.19;100325.75;4867939;29;45621;-77
2022/11/08 07:50:32;;;;;;;;;3.50;1.75;;;;;13.22;65.38;100316.06;4866819;29;45555;-77
2022/11/08 07:52:57;;;;;;;;;3.25;3.00;;;;;13.26;65.48;100310.44;4865522;29;45626;-76
2022/11/08 07:55:23;;;;;;;;;7.00;5.00;;;;;13.21;65.44;100312.50;4861825;29;46619;-76
2022/11/08 07:57:49;;;;;;;;;5.00;5.00;;;;;13.29;65.24;100322.84;4844799;29;45379;-76
2022/11/08 08:00:15;;;;;;;;;3.25;3.00;;;;;13.30;65.21;100321.91;4863659;29;45897;-76
2022/11/08 08:02:40;;;;;;;;;2.25;2.00;;;;;13.32;65.55;100322.72;4864959;29;45674;-76
2022/11/08 08:05:06;;;;;;;;;4.75;4.00;;;;;13.30;65.38;100320.09;4866252;29;46189;-76
2022/11/08 08:07:33;;;;;;;;;3.00;3.00;;;;;13.31;65.31;100318.25;4868069;29;45531;-76
2022/11/08 08:09:59;;;;;;;;;4.50;3.75;;;;;13.31;65.69;100312.91;4850955;29;45362;-76
2022/11/08 08:12:24;;;;;;;;;2.00;2.00;;;;;13.35;65.42;100319.88;4869397;29;45211;-77
2022/11/08 08:14:49;;;;;;;;;4.25;4.00;;;;;13.29;65.54;100304.06;4868630;29;45364;-76
2022/11/08 08:17:14;;;;;;;;;3.25;3.00;;;;;13.35;65.67;100309.16;4869844;29;45188;-76
2022/11/08 08:19:40;;;;;;;;;3.00;3.00;;;;;13.34;65.76;100297.56;4861280;29;45300;-76
2022/11/08 08:22:05;;;;;;;;;2.00;2.00;;;;;13.32;65.64;100302.13;4861309;29;45450;-76
2022/11/08 08:24:30;;;;;;;;;3.50;2.75;;;;;13.40;66.03;100312.47;4849537;29;47427;-77
2022/11/08 08:26:56;;;;;;;;;2.50;2.50;;;;;13.43;65.72;100303.41;4865952;29;45223;-76
2022/11/08 08:29:21;;;;;;;;;3.50;3.50;;;;;13.43;65.69;100298.03;4864864;29;45418;-76
2022/11/08 08:31:47;;;;;;;;;5.00;4.50;;;;;13.33;66.01;100277.06;4870355;29;45531;-76
2022/11/08 08:34:14;;;;;;;;;4.25;4.00;;;;;13.40;65.78;100284.78;4867792;29;45680;-76
2022/11/08 08:36:40;;;;;;;;;3.00;3.00;;;;;13.48;65.99;100282.56;4851357;29;45420;-77
2022/11/08 08:39:06;;;;;;;;;4.00;3.25;;;;;13.35;65.91;100258.22;4865828;29;45496;-76
2022/11/08 08:41:31;;;;;;;;;4.00;3.25;;;;;13.46;66.12;100285.31;4867812;29;45488;-76
2022/11/08 08:43:57;;;;;;;;;3.00;3.00;;;;;13.54;66.07;100303.72;4868071;29;45298;-76
2022/11/08 08:46:22;;;;;;;;;2.50;2.00;;;;;13.55;66.38;100302.78;4848404;29;45582;-76
2022/11/08 08:48:48;;;;;;;;;5.00;5.00;;;;;13.58;66.42;100297.25;4867195;29;45357;-76
2022/11/08 08:51:13;;;;;;;;;1.75;1.75;;;;;13.52;66.50;100287.69;4867503;29;45467;-76
2022/11/08 08:53:38;;;;;;;;;1.75;1.75;;;;;13.63;66.46;100300.56;4866474;29;47953;-76
2022/11/08 08:56:05;;;;;;;;;3.25;2.75;;;;;13.66;66.53;100311.09;4865738;29;45326;-76
2022/11/08 08:58:31;;;;;;;;;3.00;3.00;;;;;13.65;66.62;100295.13;4865205;29;45515;-76
2022/11/08 09:01:04;;;;;;;;;4.75;4.75;;;;;13.75;66.44;100312.47;4864754;29;45495;-76
2022/11/08 09:03:30;;;;;;;;;3.50;2.00;;;;;13.77;66.53;100313.25;4864473;29;45278;-76
2022/11/08 09:05:57;;;;;;;;;4.50;4.00;;;;;13.86;66.55;100326.16;4867255;29;45977;-76
2022/11/08 09:08:23;;;;;;;;;2.50;2.50;;;;;13.80;66.87;100298.78;4863738;29;45605;-76
2022/11/08 09:10:56;;;;;;;;;5.00;3.00;;;;;13.90;66.77;100317.03;4865653;29;45478;-76
2022/11/08 09:13:23;;;;;;;;;3.00;3.00;;;;;13.96;66.80;100314.97;4855939;29;45374;-76
2022/11/08 09:15:49;;;;;;;;;3.75;3.25;;;;;13.97;66.79;100306.81;4861303;29;46126;-76
2022/11/08 09:18:15;;;;;;;;;1.00;1.00;;;;;13.93;67.11;100285.59;4863645;29;45726;-76
2022/11/08 09:20:42;;;;;;;;;4.00;2.75;;;;;14.04;66.77;100302.00;4846180;29;45979;-77
2022/11/08 09:23:09;;;;;;;;;3.50;3.00;;;;;14.08;67.01;100304.44;4862371;29;45494;-76
2022/11/08 09:25:35;;;;;;;;;2.25;2.25;;;;;14.08;66.71;100311.59;4864812;29;45509;-75
2022/11/08 09:28:00;;;;;;;;;3.50;3.50;;;;;14.22;67.15;100322.47;4847703;29;45334;-74
2022/11/08 09:30:26;;;;;;;;;4.00;2.25;;;;;14.28;66.96;100329.31;4876009;29;45232;-76
2022/11/08 09:32:54;;;;;;;;;3.00;2.50;;;;;14.31;66.78;100325.63;4847057;29;47432;-76
2022/11/08 09:35:20;;;;;;;;;4.00;3.75;;;;;14.34;66.97;100331.69;4865172;29;45536;-76
2022/11/08 09:37:45;;;;;;;;;3.50;3.00;;;;;14.36;67.18;100321.72;4865267;29;45404;-76
2022/11/08 09:40:35;;;;;;;;;3.00;3.00;;;;;14.46;67.20;100328.31;4865649;29;45308;-76
2022/11/08 09:43:19;;;;;;;;;3.00;3.00;;;;;14.53;67.17;100323.47;4853581;29;45401;-77
2022/11/08 09:45:46;;;;;;;;;5.25;3.75;;;;;14.52;67.26;100300.25;4842083;29;45931;-77
2022/11/08 09:48:37;;;;;;;;;3.50;2.25;;;;;14.62;66.88;100312.25;4858429;29;45417;-77
2022/11/08 09:51:08;;;;;;;;;4.00;3.75;;;;;14.72;67.18;100317.13;4845331;29;45521;-77
2022/11/08 09:53:52;;;;;;;;;3.00;3.00;;;;;14.69;66.99;100302.03;4864425;29;48235;-77
2022/11/08 09:56:24;;;;;;;;;3.00;2.50;;;;;14.82;66.66;100315.63;4863854;29;45476;-77
2022/11/08 09:59:03;;;;;;;;;3.00;3.00;;;;;14.78;67.11;100308.69;4865388;29;45356;-77
2022/11/08 10:01:30;;;;;;;;;3.00;3.00;;;;;14.77;66.70;100290.84;4863555;29;46338;-76
2022/11/08 10:04:01;;;;;;;;;3.00;3.00;;;;;14.89;66.79;100311.63;4837305;29;46693;-76
2022/11/08 10:06:35;;;;;;;;;3.50;3.50;;;;;15.00;67.08;100316.38;4865224;29;45313;-76
2022/11/08 10:09:03;;;;;;;;;5.25;2.75;;;;;15.05;66.98;100322.38;4863029;29;45500;-75
2022/11/08 10:11:50;;;;;;;;;4.00;1.50;;;;;15.05;66.97;100306.25;4865611;29;45321;-76
2022/11/08 10:14:28;;;;;;;;;3.25;3.00;;;;;15.14;66.96;100319.16;4863033;29;45892;-76
2022/11/08 10:17:13;;;;;;;;;2.75;2.00;;;;;15.20;66.94;100323.28;4864711;29;45416;-76
2022/11/08 10:19:50;;;;;;;;;3.75;3.75;;;;;15.25;66.75;100320.34;4846277;29;45419;-76
2022/11/08 10:22:43;;;;;;;;;2.75;2.75;;;;;15.25;67.03;100312.28;4863689;29;45498;-77
2022/11/08 10:25:33;;;;;;;;;3.75;3.75;;;;;15.33;66.98;100320.75;4862217;29;46069;-76
2022/11/08 10:28:00;;;;;;;;;3.25;3.25;;;;;15.25;67.07;100307.78;4861559;29;45503;-76
2022/11/08 10:30:40;;;;;;;;;3.75;3.00;;;;;15.42;67.32;100325.63;4864017;29;45841;-77
2022/11/08 10:33:33;;;;;;;;;4.25;4.25;;;;;15.44;67.46;100321.00;4863636;29;45472;-76
2022/11/08 10:36:05;;;;;;;;;4.00;3.00;;;;;15.52;67.25;100315.19;4842853;29;48200;-76
2022/11/08 10:38:35;;;;;;;;;4.50;3.00;;;;;15.52;67.27;100313.34;4860838;29;45607;-76
2022/11/08 10:41:20;;;;;;;;;4.50;4.00;;;;;15.60;67.23;100306.63;4860839;29;45426;-76
2022/11/08 10:43:53;;;;;;;;;3.50;3.50;;;;;15.65;67.17;100316.16;4856882;29;45644;-76
2022/11/08 10:46:45;;;;;;;;;3.00;3.00;;;;;15.68;67.19;100310.56;4848351;29;47112;-76
2022/11/08 10:49:31;;;;;;;;;5.00;3.00;;;;;15.71;67.36;100299.63;4838750;29;45437;-76
2022/11/08 10:51:59;;;;;;;;;3.50;3.25;;;;;15.76;67.68;100296.69;4856694;29;45529;-76
2022/11/08 10:55:00;;;;;;;;;4.75;3.25;;;;;15.75;67.94;100292.22;4847010;29;45481;-76
2022/11/08 10:57:28;;;;;;;;;5.00;4.00;;;;;15.92;67.51;100308.25;4842204;29;47752;-76
2022/11/08 10:59:55;;;;;;;;;4.50;4.00;;;;;15.97;67.57;100293.63;4863134;29;45371;-76
2022/11/08 11:02:27;;;;;;;;;3.75;3.75;;;;;16.02;67.31;100294.22;4867771;29;46431;-76
2022/11/08 11:05:11;;;;;;;;;3.25;3.00;;;;;16.05;67.52;100284.13;4840357;29;45465;-76
2022/11/08 11:07:36;;;;;;;;;3.75;3.25;;;;;16.02;66.87;100264.59;4860270;29;45504;-76
2022/11/08 11:10:25;;;;;;;;;6.25;5.00;;;;;16.17;67.29;100284.31;4859940;29;45503;-76
2022/11/08 11:13:05;;;;;;;;;4.00;4.00;;;;;16.21;67.50;100280.47;4864020;29;46041;-76
2022/11/08 11:15:37;;;;;;;;;3.00;3.00;;;;;16.24;67.18;100288.38;4848360;29;45454;-76
2022/11/08 11:18:04;;;;;;;;;4.00;3.00;;;;;16.29;67.17;100294.34;4859801;29;45837;-76
2022/11/08 11:20:31;;;;;;;;;5.50;3.75;;;;;16.23;66.99;100276.72;4863009;29;45517;-76
2022/11/08 11:22:58;;;;;;;;;4.25;2.50;;;;;16.36;67.07;100295.66;4863068;29;45271;-76
2022/11/08 11:25:23;;;;;;;;;4.50;3.50;;;;;16.37;67.04;100292.00;4860875;29;45559;-76
2022/11/08 11:27:59;;;;;;;;;3.75;3.75;;;;;16.42;66.91;100289.00;4843905;29;46046;-76
2022/11/08 11:30:33;;;;;;;;;6.75;3.00;;;;;16.42;66.94;100264.75;4863041;29;45484;-76
2022/11/08 11:33:03;;;;;;;;;5.00;3.25;;;;;16.45;66.98;100273.50;4859933;29;45482;-76
2022/11/08 11:35:42;;;;;;;;;3.50;3.00;;;;;16.45;66.86;100270.81;4868322;29;45479;-78
2022/11/08 11:38:17;;;;;;;;;3.00;3.00;;;;;16.55;67.11;100281.88;4864166;29;45509;-76
2022/11/08 11:40:45;;;;;;;;;5.50;2.25;;;;;16.57;66.94;100292.53;4852176;29;45400;-76
2022/11/08 11:43:58;;;;;;;;;4.00;4.00;;;;;16.63;66.87;100297.53;4869896;29;46569;-76
2022/11/08 11:46:59;;;;;;;;;3.00;3.00;;;;;16.66;66.83;100298.22;4794163;29;45233;-78
2022/11/08 11:49:28;;;;;;;;;4.50;3.00;;;;;16.68;66.66;100281.94;4844551;29;46468;-77